Stoutsville, Missouri
Current Conditions -  °F | °C
As of 9:55 PM on Saturday 25 Oct 2014 (Local Time) from KHAE Reporting Station
Clear Clear  
Wind Chill: 17°   Ceiling: Unl
Heat Index: 17°   Visibility: 10mi
Dew Point:   Wind: 5mph
Humidity: 42%   Direction: 30°NNE
Pressure: 30.05"   Gusts: NA
Location:  39.55°N, 91.86°W
Report Text: KHAE 260255Z AUTO 03004KT 10SM CLR 17/04 A3005 RMK AO2
Loading
Personal Weather Stations






























Interactive Weather Map
Tropical Storm Tracking
New forecast layout! Learn more

10-Day Weather Forecast

Advertisements
Track Severe Weather on mobile